sensor_id;sensor_type;location;lat;lon;timestamp;temperature;humidity
16247;DHT22;8231;50.866;7.944;2023-01-31T00:01:38;3.50;99.90
16247;DHT22;8231;50.866;7.944;2023-01-31T00:04:09;3.40;99.90
16247;DHT22;8231;50.866;7.944;2023-01-31T00:06:39;3.50;99.90
16247;DHT22;8231;50.866;7.944;2023-01-31T00:09:09;3.40;99.90
16247;DHT22;8231;50.866;7.944;2023-01-31T00:11:37;3.40;99.90
16247;DHT22;8231;50.866;7.944;2023-01-31T00:14:07;3.40;99.90
16247;DHT22;8231;50.866;7.944;2023-01-31T00:16:36;3.40;99.90
16247;DHT22;8231;50.866;7.944;2023-01-31T00:19:05;3.40;99.90
16247;DHT22;8231;50.866;7.944;2023-01-31T00:21:35;3.40;99.90
16247;DHT22;8231;50.866;7.944;2023-01-31T00:24:03;3.40;99.90
16247;DHT22;8231;50.866;7.944;2023-01-31T00:26:33;3.40;99.90
16247;DHT22;8231;50.866;7.944;2023-01-31T00:29:03;3.40;99.90
16247;DHT22;8231;50.866;7.944;2023-01-31T00:31:33;3.30;99.90
16247;DHT22;8231;50.866;7.944;2023-01-31T00:34:02;3.40;99.90
16247;DHT22;8231;50.866;7.944;2023-01-31T00:36:32;3.40;99.90
16247;DHT22;8231;50.866;7.944;2023-01-31T00:39:04;3.40;99.90
16247;DHT22;8231;50.866;7.944;2023-01-31T00:41:34;3.40;99.90
16247;DHT22;8231;50.866;7.944;2023-01-31T00:44:04;3.40;99.90
16247;DHT22;8231;50.866;7.944;2023-01-31T00:46:32;3.40;99.90
16247;DHT22;8231;50.866;7.944;2023-01-31T00:49:02;3.40;99.90
16247;DHT22;8231;50.866;7.944;2023-01-31T00:51:30;3.40;99.90
16247;DHT22;8231;50.866;7.944;2023-01-31T00:54:02;3.50;99.90
16247;DHT22;8231;50.866;7.944;2023-01-31T00:56:30;3.40;99.90
16247;DHT22;8231;50.866;7.944;2023-01-31T00:58:58;3.40;99.90
16247;DHT22;8231;50.866;7.944;2023-01-31T01:01:27;3.40;99.90
16247;DHT22;8231;50.866;7.944;2023-01-31T01:03:56;3.40;99.90
16247;DHT22;8231;50.866;7.944;2023-01-31T01:06:26;3.40;99.90
16247;DHT22;8231;50.866;7.944;2023-01-31T01:08:55;3.40;99.90
16247;DHT22;8231;50.866;7.944;2023-01-31T01:11:26;3.40;99.90
16247;DHT22;8231;50.866;7.944;2023-01-31T01:13:55;3.40;99.90
16247;DHT22;8231;50.866;7.944;2023-01-31T01:16:29;3.40;99.90
16247;DHT22;8231;50.866;7.944;2023-01-31T01:18:59;3.40;99.90
16247;DHT22;8231;50.866;7.944;2023-01-31T01:21:29;3.40;99.90
16247;DHT22;8231;50.866;7.944;2023-01-31T01:24:00;3.40;99.90
16247;DHT22;8231;50.866;7.944;2023-01-31T01:26:31;3.40;99.90
16247;DHT22;8231;50.866;7.944;2023-01-31T01:29:03;3.40;99.90
16247;DHT22;8231;50.866;7.944;2023-01-31T01:31:31;3.40;99.90
16247;DHT22;8231;50.866;7.944;2023-01-31T01:34:02;3.40;99.90
16247;DHT22;8231;50.866;7.944;2023-01-31T01:36:32;3.40;99.90
16247;DHT22;8231;50.866;7.944;2023-01-31T01:39:01;3.40;99.90
16247;DHT22;8231;50.866;7.944;2023-01-31T01:41:31;3.40;99.90
16247;DHT22;8231;50.866;7.944;2023-01-31T01:44:03;3.40;99.90
16247;DHT22;8231;50.866;7.944;2023-01-31T01:46:34;3.40;99.90
16247;DHT22;8231;50.866;7.944;2023-01-31T01:49:10;3.30;99.90
16247;DHT22;8231;50.866;7.944;2023-01-31T01:51:40;3.30;99.90
16247;DHT22;8231;50.866;7.944;2023-01-31T01:54:14;3.30;99.90
16247;DHT22;8231;50.866;7.944;2023-01-31T01:56:48;3.30;99.90
16247;DHT22;8231;50.866;7.944;2023-01-31T01:59:20;3.30;99.90
16247;DHT22;8231;50.866;7.944;2023-01-31T02:01:50;3.30;99.90
16247;DHT22;8231;50.866;7.944;2023-01-31T02:04:25;3.30;99.90
16247;DHT22;8231;50.866;7.944;2023-01-31T02:06:55;3.30;99.90
16247;DHT22;8231;50.866;7.944;2023-01-31T02:09:30;3.30;99.90
16247;DHT22;8231;50.866;7.944;2023-01-31T02:12:05;3.30;99.90
16247;DHT22;8231;50.866;7.944;2023-01-31T02:14:34;3.20;99.90
16247;DHT22;8231;50.866;7.944;2023-01-31T02:17:03;3.20;99.90
16247;DHT22;8231;50.866;7.944;2023-01-31T02:19:37;3.20;99.90
16247;DHT22;8231;50.866;7.944;2023-01-31T02:22:16;3.20;99.90
16247;DHT22;8231;50.866;7.944;2023-01-31T02:25:25;3.20;99.90
16247;DHT22;8231;50.866;7.944;2023-01-31T02:28:51;3.20;99.90
16247;DHT22;8231;50.866;7.944;2023-01-31T02:34:25;3.20;99.90
16247;DHT22;8231;50.866;7.944;2023-01-31T02:37:04;3.20;99.90
16247;DHT22;8231;50.866;7.944;2023-01-31T02:39:40;3.10;99.90
16247;DHT22;8231;50.866;7.944;2023-01-31T02:42:17;3.20;99.90
16247;DHT22;8231;50.866;7.944;2023-01-31T02:44:53;3.20;99.90
16247;DHT22;8231;50.866;7.944;2023-01-31T02:47:37;3.20;99.90
16247;DHT22;8231;50.866;7.944;2023-01-31T02:50:13;3.10;99.90
16247;DHT22;8231;50.866;7.944;2023-01-31T02:52:50;3.10;99.90
16247;DHT22;8231;50.866;7.944;2023-01-31T02:55:22;3.10;99.90
16247;DHT22;8231;50.866;7.944;2023-01-31T02:58:11;3.10;99.90
16247;DHT22;8231;50.866;7.944;2023-01-31T03:00:43;3.10;99.90
16247;DHT22;8231;50.866;7.944;2023-01-31T03:03:18;3.10;99.90
16247;DHT22;8231;50.866;7.944;2023-01-31T03:08:58;3.10;99.90
16247;DHT22;8231;50.866;7.944;2023-01-31T03:11:45;3.10;99.90
16247;DHT22;8231;50.866;7.944;2023-01-31T03:14:25;3.10;99.90
16247;DHT22;8231;50.866;7.944;2023-01-31T03:17:00;3.10;99.90
16247;DHT22;8231;50.866;7.944;2023-01-31T03:19:51;3.10;99.90
16247;DHT22;8231;50.866;7.944;2023-01-31T03:22:25;3.10;99.90
16247;DHT22;8231;50.866;7.944;2023-01-31T03:24:56;3.10;99.90
16247;DHT22;8231;50.866;7.944;2023-01-31T03:27:27;3.10;99.90
16247;DHT22;8231;50.866;7.944;2023-01-31T03:30:01;3.10;99.90
16247;DHT22;8231;50.866;7.944;2023-01-31T03:32:35;3.10;99.90
16247;DHT22;8231;50.866;7.944;2023-01-31T03:35:06;3.10;99.90
16247;DHT22;8231;50.866;7.944;2023-01-31T03:37:39;3.10;99.90
16247;DHT22;8231;50.866;7.944;2023-01-31T03:40:16;3.10;99.90
16247;DHT22;8231;50.866;7.944;2023-01-31T03:42:51;3.10;99.90
16247;DHT22;8231;50.866;7.944;2023-01-31T03:45:26;3.10;99.90
16247;DHT22;8231;50.866;7.944;2023-01-31T03:47:58;3.20;99.90
16247;DHT22;8231;50.866;7.944;2023-01-31T03:50:36;3.10;99.90
16247;DHT22;8231;50.866;7.944;2023-01-31T03:53:08;3.10;99.90
16247;DHT22;8231;50.866;7.944;2023-01-31T03:55:43;3.20;99.90
16247;DHT22;8231;50.866;7.944;2023-01-31T03:58:17;3.20;99.90
16247;DHT22;8231;50.866;7.944;2023-01-31T04:00:47;3.20;99.90
16247;DHT22;8231;50.866;7.944;2023-01-31T04:03:22;3.10;99.90
16247;DHT22;8231;50.866;7.944;2023-01-31T04:05:51;3.20;99.90
16247;DHT22;8231;50.866;7.944;2023-01-31T04:08:21;3.20;99.90
16247;DHT22;8231;50.866;7.944;2023-01-31T04:10:59;3.10;99.90
16247;DHT22;8231;50.866;7.944;2023-01-31T04:13:30;3.10;99.90
16247;DHT22;8231;50.866;7.944;2023-01-31T04:15:58;3.10;99.90
16247;DHT22;8231;50.866;7.944;2023-01-31T04:18:26;3.10;99.90
16247;DHT22;8231;50.866;7.944;2023-01-31T04:20:54;3.00;99.90
16247;DHT22;8231;50.866;7.944;2023-01-31T04:23:22;3.00;99.90
16247;DHT22;8231;50.866;7.944;2023-01-31T04:25:52;3.00;99.90
16247;DHT22;8231;50.866;7.944;2023-01-31T04:28:22;3.00;99.90
16247;DHT22;8231;50.866;7.944;2023-01-31T04:30:51;3.00;99.90
16247;DHT22;8231;50.866;7.944;2023-01-31T04:33:20;2.90;99.90
16247;DHT22;8231;50.866;7.944;2023-01-31T04:35:50;2.90;99.90
16247;DHT22;8231;50.866;7.944;2023-01-31T04:38:18;2.90;99.90
16247;DHT22;8231;50.866;7.944;2023-01-31T04:40:46;2.80;99.90
16247;DHT22;8231;50.866;7.944;2023-01-31T04:43:14;2.80;99.90
16247;DHT22;8231;50.866;7.944;2023-01-31T04:45:43;2.70;99.90
16247;DHT22;8231;50.866;7.944;2023-01-31T04:48:12;2.60;99.90
16247;DHT22;8231;50.866;7.944;2023-01-31T04:50:40;2.60;99.90
16247;DHT22;8231;50.866;7.944;2023-01-31T04:53:08;2.60;99.90
16247;DHT22;8231;50.866;7.944;2023-01-31T04:55:36;2.50;99.90
16247;DHT22;8231;50.866;7.944;2023-01-31T04:58:04;2.50;99.90
16247;DHT22;8231;50.866;7.944;2023-01-31T05:00:33;2.50;99.90
16247;DHT22;8231;50.866;7.944;2023-01-31T05:03:03;2.50;99.90
16247;DHT22;8231;50.866;7.944;2023-01-31T05:05:32;2.50;99.90
16247;DHT22;8231;50.866;7.944;2023-01-31T05:08:03;2.50;99.90
16247;DHT22;8231;50.866;7.944;2023-01-31T05:10:33;2.50;99.90
16247;DHT22;8231;50.866;7.944;2023-01-31T05:13:02;2.50;99.90
16247;DHT22;8231;50.866;7.944;2023-01-31T05:15:30;2.50;99.90
16247;DHT22;8231;50.866;7.944;2023-01-31T05:17:59;2.50;99.90
16247;DHT22;8231;50.866;7.944;2023-01-31T05:20:34;2.50;99.90
16247;DHT22;8231;50.866;7.944;2023-01-31T05:23:06;2.50;99.90
16247;DHT22;8231;50.866;7.944;2023-01-31T05:25:35;2.50;99.90
16247;DHT22;8231;50.866;7.944;2023-01-31T05:28:04;2.40;99.90
16247;DHT22;8231;50.866;7.944;2023-01-31T05:30:32;2.50;99.90
16247;DHT22;8231;50.866;7.944;2023-01-31T05:33:01;2.50;99.90
16247;DHT22;8231;50.866;7.944;2023-01-31T05:35:29;2.50;99.90
16247;DHT22;8231;50.866;7.944;2023-01-31T05:37:58;2.50;99.90
16247;DHT22;8231;50.866;7.944;2023-01-31T05:40:26;2.50;99.90
16247;DHT22;8231;50.866;7.944;2023-01-31T05:42:55;2.60;99.90
16247;DHT22;8231;50.866;7.944;2023-01-31T05:45:23;2.60;99.90
16247;DHT22;8231;50.866;7.944;2023-01-31T05:47:51;2.60;99.90
16247;DHT22;8231;50.866;7.944;2023-01-31T05:50:19;2.60;99.90
16247;DHT22;8231;50.866;7.944;2023-01-31T05:52:51;2.60;99.90
16247;DHT22;8231;50.866;7.944;2023-01-31T05:55:21;2.60;99.90
16247;DHT22;8231;50.866;7.944;2023-01-31T05:57:50;2.60;99.90
16247;DHT22;8231;50.866;7.944;2023-01-31T06:00:19;2.70;99.90
16247;DHT22;8231;50.866;7.944;2023-01-31T06:02:47;2.70;99.90
16247;DHT22;8231;50.866;7.944;2023-01-31T06:05:16;2.70;99.90
16247;DHT22;8231;50.866;7.944;2023-01-31T06:07:45;2.90;99.90
16247;DHT22;8231;50.866;7.944;2023-01-31T06:10:13;2.70;99.90
16247;DHT22;8231;50.866;7.944;2023-01-31T06:12:42;2.80;99.90
16247;DHT22;8231;50.866;7.944;2023-01-31T06:15:11;2.80;99.90
16247;DHT22;8231;50.866;7.944;2023-01-31T06:17:39;2.80;99.90
16247;DHT22;8231;50.866;7.944;2023-01-31T06:20:08;2.80;99.90
16247;DHT22;8231;50.866;7.944;2023-01-31T06:22:36;2.70;99.90
16247;DHT22;8231;50.866;7.944;2023-01-31T06:25:05;2.80;99.90
16247;DHT22;8231;50.866;7.944;2023-01-31T06:27:33;2.80;99.90
16247;DHT22;8231;50.866;7.944;2023-01-31T06:30:04;2.80;99.90
16247;DHT22;8231;50.866;7.944;2023-01-31T06:32:32;2.80;99.90
16247;DHT22;8231;50.866;7.944;2023-01-31T06:35:01;2.80;99.90
16247;DHT22;8231;50.866;7.944;2023-01-31T06:37:29;2.80;99.90
16247;DHT22;8231;50.866;7.944;2023-01-31T06:39:57;2.80;99.90
16247;DHT22;8231;50.866;7.944;2023-01-31T06:42:26;2.80;99.90
16247;DHT22;8231;50.866;7.944;2023-01-31T06:44:54;2.80;99.90
16247;DHT22;8231;50.866;7.944;2023-01-31T06:47:23;2.80;99.90
16247;DHT22;8231;50.866;7.944;2023-01-31T06:49:51;2.80;99.90
16247;DHT22;8231;50.866;7.944;2023-01-31T06:52:19;2.90;99.90
16247;DHT22;8231;50.866;7.944;2023-01-31T06:54:47;2.90;99.90
16247;DHT22;8231;50.866;7.944;2023-01-31T06:57:15;2.90;99.90
16247;DHT22;8231;50.866;7.944;2023-01-31T06:59:43;2.90;99.90
16247;DHT22;8231;50.866;7.944;2023-01-31T07:02:11;2.90;99.90
16247;DHT22;8231;50.866;7.944;2023-01-31T07:04:41;2.90;99.90
16247;DHT22;8231;50.866;7.944;2023-01-31T07:07:09;2.90;99.90
16247;DHT22;8231;50.866;7.944;2023-01-31T07:09:37;2.90;99.90
16247;DHT22;8231;50.866;7.944;2023-01-31T07:12:05;2.90;99.90
16247;DHT22;8231;50.866;7.944;2023-01-31T07:14:34;3.00;99.90
16247;DHT22;8231;50.866;7.944;2023-01-31T07:17:02;2.90;99.90
16247;DHT22;8231;50.866;7.944;2023-01-31T07:19:30;2.90;99.90
16247;DHT22;8231;50.866;7.944;2023-01-31T07:21:59;2.90;99.90
16247;DHT22;8231;50.866;7.944;2023-01-31T07:24:27;2.90;99.90
16247;DHT22;8231;50.866;7.944;2023-01-31T07:26:56;2.90;99.90
16247;DHT22;8231;50.866;7.944;2023-01-31T07:29:24;2.90;99.90
16247;DHT22;8231;50.866;7.944;2023-01-31T07:31:54;2.90;99.90
16247;DHT22;8231;50.866;7.944;2023-01-31T07:34:22;3.00;99.90
16247;DHT22;8231;50.866;7.944;2023-01-31T07:36:50;2.90;99.90
16247;DHT22;8231;50.866;7.944;2023-01-31T07:39:19;2.90;99.90
16247;DHT22;8231;50.866;7.944;2023-01-31T07:41:48;2.90;99.90
16247;DHT22;8231;50.866;7.944;2023-01-31T07:44:16;2.90;99.90
16247;DHT22;8231;50.866;7.944;2023-01-31T07:46:44;2.90;99.90
16247;DHT22;8231;50.866;7.944;2023-01-31T07:49:12;2.90;99.90
16247;DHT22;8231;50.866;7.944;2023-01-31T07:51:41;3.00;99.90
16247;DHT22;8231;50.866;7.944;2023-01-31T07:54:10;3.00;99.90
16247;DHT22;8231;50.866;7.944;2023-01-31T07:56:39;3.00;99.90
16247;DHT22;8231;50.866;7.944;2023-01-31T07:59:08;2.90;99.90
16247;DHT22;8231;50.866;7.944;2023-01-31T08:01:36;2.90;99.90
16247;DHT22;8231;50.866;7.944;2023-01-31T08:04:22;3.00;99.90
16247;DHT22;8231;50.866;7.944;2023-01-31T08:06:52;3.00;99.90
16247;DHT22;8231;50.866;7.944;2023-01-31T08:09:21;2.90;99.90
16247;DHT22;8231;50.866;7.944;2023-01-31T08:11:52;3.00;99.90
16247;DHT22;8231;50.866;7.944;2023-01-31T08:14:20;3.00;99.90
16247;DHT22;8231;50.866;7.944;2023-01-31T08:16:51;3.00;99.90
16247;DHT22;8231;50.866;7.944;2023-01-31T08:19:20;3.10;99.90
16247;DHT22;8231;50.866;7.944;2023-01-31T08:21:48;3.10;99.90
16247;DHT22;8231;50.866;7.944;2023-01-31T08:24:17;3.10;99.90
16247;DHT22;8231;50.866;7.944;2023-01-31T08:26:45;3.10;99.90
16247;DHT22;8231;50.866;7.944;2023-01-31T08:29:14;3.10;99.90
16247;DHT22;8231;50.866;7.944;2023-01-31T08:31:43;3.10;99.90
16247;DHT22;8231;50.866;7.944;2023-01-31T08:34:11;3.10;99.90
16247;DHT22;8231;50.866;7.944;2023-01-31T08:36:40;3.10;99.90
16247;DHT22;8231;50.866;7.944;2023-01-31T08:39:08;3.20;99.90
16247;DHT22;8231;50.866;7.944;2023-01-31T08:41:37;3.30;99.90
16247;DHT22;8231;50.866;7.944;2023-01-31T08:44:06;3.30;99.90
16247;DHT22;8231;50.866;7.944;2023-01-31T08:46:36;3.30;99.90
16247;DHT22;8231;50.866;7.944;2023-01-31T08:49:06;3.40;99.90
16247;DHT22;8231;50.866;7.944;2023-01-31T08:51:34;3.40;99.90
16247;DHT22;8231;50.866;7.944;2023-01-31T08:54:03;3.50;99.90
16247;DHT22;8231;50.866;7.944;2023-01-31T08:56:31;3.50;99.90
16247;DHT22;8231;50.866;7.944;2023-01-31T08:58:59;3.50;99.90
16247;DHT22;8231;50.866;7.944;2023-01-31T09:01:27;3.50;99.90
16247;DHT22;8231;50.866;7.944;2023-01-31T09:03:57;3.60;99.90
16247;DHT22;8231;50.866;7.944;2023-01-31T09:06:26;3.60;99.90
16247;DHT22;8231;50.866;7.944;2023-01-31T09:08:56;3.60;99.90
16247;DHT22;8231;50.866;7.944;2023-01-31T09:11:26;3.60;99.90
16247;DHT22;8231;50.866;7.944;2023-01-31T09:13:57;3.60;99.90
16247;DHT22;8231;50.866;7.944;2023-01-31T09:16:25;3.60;99.90
16247;DHT22;8231;50.866;7.944;2023-01-31T09:18:54;3.60;99.90
16247;DHT22;8231;50.866;7.944;2023-01-31T09:21:24;3.60;99.90
16247;DHT22;8231;50.866;7.944;2023-01-31T09:23:57;3.60;99.90
16247;DHT22;8231;50.866;7.944;2023-01-31T09:26:25;3.60;99.90
16247;DHT22;8231;50.866;7.944;2023-01-31T09:28:54;3.50;99.90
16247;DHT22;8231;50.866;7.944;2023-01-31T09:31:24;3.60;99.90
16247;DHT22;8231;50.866;7.944;2023-01-31T09:33:52;3.60;99.90
16247;DHT22;8231;50.866;7.944;2023-01-31T09:36:22;3.70;99.90
16247;DHT22;8231;50.866;7.944;2023-01-31T09:38:54;3.60;99.90
16247;DHT22;8231;50.866;7.944;2023-01-31T09:41:28;3.60;99.90
16247;DHT22;8231;50.866;7.944;2023-01-31T09:44:00;3.60;99.90
16247;DHT22;8231;50.866;7.944;2023-01-31T09:46:34;3.60;99.90
16247;DHT22;8231;50.866;7.944;2023-01-31T09:49:05;3.60;99.90
16247;DHT22;8231;50.866;7.944;2023-01-31T09:51:37;3.60;99.90
16247;DHT22;8231;50.866;7.944;2023-01-31T09:54:16;3.70;99.90
16247;DHT22;8231;50.866;7.944;2023-01-31T09:56:53;3.80;99.90
16247;DHT22;8231;50.866;7.944;2023-01-31T09:59:33;3.80;99.90
16247;DHT22;8231;50.866;7.944;2023-01-31T10:02:16;3.80;99.90
16247;DHT22;8231;50.866;7.944;2023-01-31T10:05:01;3.90;99.90
16247;DHT22;8231;50.866;7.944;2023-01-31T10:07:33;3.90;99.90
16247;DHT22;8231;50.866;7.944;2023-01-31T10:10:12;3.80;99.90
16247;DHT22;8231;50.866;7.944;2023-01-31T10:12:47;3.80;99.90
16247;DHT22;8231;50.866;7.944;2023-01-31T10:15:24;3.80;99.90
16247;DHT22;8231;50.866;7.944;2023-01-31T10:17:57;4.00;99.90
16247;DHT22;8231;50.866;7.944;2023-01-31T10:20:31;4.00;99.90
16247;DHT22;8231;50.866;7.944;2023-01-31T10:23:04;4.10;99.90
16247;DHT22;8231;50.866;7.944;2023-01-31T10:25:39;4.10;99.90
16247;DHT22;8231;50.866;7.944;2023-01-31T10:28:14;4.10;99.90
16247;DHT22;8231;50.866;7.944;2023-01-31T10:30:47;4.10;99.90
16247;DHT22;8231;50.866;7.944;2023-01-31T10:33:23;4.20;99.90
16247;DHT22;8231;50.866;7.944;2023-01-31T10:35:56;4.30;99.90
16247;DHT22;8231;50.866;7.944;2023-01-31T10:38:31;4.30;99.90
16247;DHT22;8231;50.866;7.944;2023-01-31T10:41:08;4.30;99.90
16247;DHT22;8231;50.866;7.944;2023-01-31T10:43:44;4.40;99.90
16247;DHT22;8231;50.866;7.944;2023-01-31T10:46:14;4.50;99.90
16247;DHT22;8231;50.866;7.944;2023-01-31T10:48:44;4.50;99.90
16247;DHT22;8231;50.866;7.944;2023-01-31T10:51:26;4.40;99.90
16247;DHT22;8231;50.866;7.944;2023-01-31T10:54:16;4.40;99.90
16247;DHT22;8231;50.866;7.944;2023-01-31T10:56:48;4.30;99.90
16247;DHT22;8231;50.866;7.944;2023-01-31T10:59:22;4.30;99.90
16247;DHT22;8231;50.866;7.944;2023-01-31T11:01:52;4.30;99.90
16247;DHT22;8231;50.866;7.944;2023-01-31T11:04:24;4.40;99.90
16247;DHT22;8231;50.866;7.944;2023-01-31T11:06:53;4.40;99.90
16247;DHT22;8231;50.866;7.944;2023-01-31T11:09:22;4.40;99.90
16247;DHT22;8231;50.866;7.944;2023-01-31T11:11:57;4.40;99.90
16247;DHT22;8231;50.866;7.944;2023-01-31T11:14:25;4.30;99.90
16247;DHT22;8231;50.866;7.944;2023-01-31T11:16:58;4.30;99.90
16247;DHT22;8231;50.866;7.944;2023-01-31T11:19:33;4.30;99.90
16247;DHT22;8231;50.866;7.944;2023-01-31T11:22:03;4.30;99.90
16247;DHT22;8231;50.866;7.944;2023-01-31T11:24:32;4.30;99.90
16247;DHT22;8231;50.866;7.944;2023-01-31T11:27:05;4.30;99.90
16247;DHT22;8231;50.866;7.944;2023-01-31T11:29:37;4.30;99.90
16247;DHT22;8231;50.866;7.944;2023-01-31T11:32:16;4.20;99.90
16247;DHT22;8231;50.866;7.944;2023-01-31T11:34:56;4.30;99.90
16247;DHT22;8231;50.866;7.944;2023-01-31T11:37:25;4.30;99.90
16247;DHT22;8231;50.866;7.944;2023-01-31T11:39:55;4.30;99.90
16247;DHT22;8231;50.866;7.944;2023-01-31T11:42:25;4.30;99.90
16247;DHT22;8231;50.866;7.944;2023-01-31T11:44:57;4.30;99.90
16247;DHT22;8231;50.866;7.944;2023-01-31T11:47:38;4.20;99.90
16247;DHT22;8231;50.866;7.944;2023-01-31T11:50:18;4.20;99.90
16247;DHT22;8231;50.866;7.944;2023-01-31T11:52:53;4.20;99.90
16247;DHT22;8231;50.866;7.944;2023-01-31T11:55:22;4.20;99.90
16247;DHT22;8231;50.866;7.944;2023-01-31T11:57:56;4.30;99.90
16247;DHT22;8231;50.866;7.944;2023-01-31T12:00:27;4.30;99.90
16247;DHT22;8231;50.866;7.944;2023-01-31T12:03:01;4.40;99.90
16247;DHT22;8231;50.866;7.944;2023-01-31T12:05:37;4.40;99.90
16247;DHT22;8231;50.866;7.944;2023-01-31T12:08:26;4.30;99.90
16247;DHT22;8231;50.866;7.944;2023-01-31T12:10:56;4.20;99.90
16247;DHT22;8231;50.866;7.944;2023-01-31T12:13:46;4.50;99.90
16247;DHT22;8231;50.866;7.944;2023-01-31T12:16:18;4.20;99.90
16247;DHT22;8231;50.866;7.944;2023-01-31T12:18:56;4.20;99.90
16247;DHT22;8231;50.866;7.944;2023-01-31T12:21:38;4.20;99.90
16247;DHT22;8231;50.866;7.944;2023-01-31T12:24:16;4.20;99.90
16247;DHT22;8231;50.866;7.944;2023-01-31T12:26:48;4.20;99.90
16247;DHT22;8231;50.866;7.944;2023-01-31T12:29:35;4.20;99.90
16247;DHT22;8231;50.866;7.944;2023-01-31T12:32:21;4.10;99.90
16247;DHT22;8231;50.866;7.944;2023-01-31T12:35:14;4.10;99.90
16247;DHT22;8231;50.866;7.944;2023-01-31T12:37:52;4.10;99.90
16247;DHT22;8231;50.866;7.944;2023-01-31T12:40:39;4.00;99.90
16247;DHT22;8231;50.866;7.944;2023-01-31T12:43:18;4.00;99.90
16247;DHT22;8231;50.866;7.944;2023-01-31T12:46:00;4.10;99.90
16247;DHT22;8231;50.866;7.944;2023-01-31T12:48:55;4.00;99.90
16247;DHT22;8231;50.866;7.944;2023-01-31T12:51:37;4.00;99.90
16247;DHT22;8231;50.866;7.944;2023-01-31T12:54:20;4.00;99.90
16247;DHT22;8231;50.866;7.944;2023-01-31T12:57:00;4.00;99.90
16247;DHT22;8231;50.866;7.944;2023-01-31T12:59:41;4.00;99.90
16247;DHT22;8231;50.866;7.944;2023-01-31T13:02:30;4.00;99.90
16247;DHT22;8231;50.866;7.944;2023-01-31T13:05:09;4.00;99.90
16247;DHT22;8231;50.866;7.944;2023-01-31T13:07:42;4.00;99.90
16247;DHT22;8231;50.866;7.944;2023-01-31T13:10:26;4.00;99.90
16247;DHT22;8231;50.866;7.944;2023-01-31T13:12:57;4.00;99.90
16247;DHT22;8231;50.866;7.944;2023-01-31T13:15:30;4.00;99.90
16247;DHT22;8231;50.866;7.944;2023-01-31T13:18:03;3.90;99.90
16247;DHT22;8231;50.866;7.944;2023-01-31T13:20:36;3.90;99.90
16247;DHT22;8231;50.866;7.944;2023-01-31T13:23:10;4.00;99.90
16247;DHT22;8231;50.866;7.944;2023-01-31T13:25:42;4.00;99.90
16247;DHT22;8231;50.866;7.944;2023-01-31T13:28:15;4.10;99.90
16247;DHT22;8231;50.866;7.944;2023-01-31T13:30:50;4.10;99.90
16247;DHT22;8231;50.866;7.944;2023-01-31T13:33:29;4.10;99.90
16247;DHT22;8231;50.866;7.944;2023-01-31T13:36:07;4.10;99.90
16247;DHT22;8231;50.866;7.944;2023-01-31T13:38:40;4.10;99.90
16247;DHT22;8231;50.866;7.944;2023-01-31T13:41:16;4.10;99.90
16247;DHT22;8231;50.866;7.944;2023-01-31T13:43:44;4.20;99.90
16247;DHT22;8231;50.866;7.944;2023-01-31T13:46:13;4.20;99.90
16247;DHT22;8231;50.866;7.944;2023-01-31T13:48:48;4.10;99.90
16247;DHT22;8231;50.866;7.944;2023-01-31T13:51:22;4.10;99.90
16247;DHT22;8231;50.866;7.944;2023-01-31T13:53:56;4.10;99.90
16247;DHT22;8231;50.866;7.944;2023-01-31T13:56:28;4.10;99.90
16247;DHT22;8231;50.866;7.944;2023-01-31T13:58:57;4.20;99.90
16247;DHT22;8231;50.866;7.944;2023-01-31T14:01:28;4.10;99.90
16247;DHT22;8231;50.866;7.944;2023-01-31T14:04:26;4.10;99.90
16247;DHT22;8231;50.866;7.944;2023-01-31T14:10:25;4.10;99.90
16247;DHT22;8231;50.866;7.944;2023-01-31T14:13:39;4.10;99.90
16247;DHT22;8231;50.866;7.944;2023-01-31T14:16:32;4.10;99.90
16247;DHT22;8231;50.866;7.944;2023-01-31T14:19:01;4.20;99.90
16247;DHT22;8231;50.866;7.944;2023-01-31T14:21:52;4.20;99.90
16247;DHT22;8231;50.866;7.944;2023-01-31T14:27:33;4.30;99.90
16247;DHT22;8231;50.866;7.944;2023-01-31T14:30:26;4.30;99.90
16247;DHT22;8231;50.866;7.944;2023-01-31T14:33:21;4.30;99.90
16247;DHT22;8231;50.866;7.944;2023-01-31T14:36:12;4.30;99.90
16247;DHT22;8231;50.866;7.944;2023-01-31T14:39:09;4.30;99.90
16247;DHT22;8231;50.866;7.944;2023-01-31T14:42:03;4.30;99.90
16247;DHT22;8231;50.866;7.944;2023-01-31T14:44:48;4.30;99.90
16247;DHT22;8231;50.866;7.944;2023-01-31T14:47:31;4.40;99.90
16247;DHT22;8231;50.866;7.944;2023-01-31T14:53:33;4.30;99.90
16247;DHT22;8231;50.866;7.944;2023-01-31T14:56:15;4.30;99.90
16247;DHT22;8231;50.866;7.944;2023-01-31T14:58:47;4.30;99.90
16247;DHT22;8231;50.866;7.944;2023-01-31T15:01:18;4.30;99.90
16247;DHT22;8231;50.866;7.944;2023-01-31T15:03:49;4.30;99.90
16247;DHT22;8231;50.866;7.944;2023-01-31T15:06:22;4.40;99.90
16247;DHT22;8231;50.866;7.944;2023-01-31T15:15:25;4.50;99.90
16247;DHT22;8231;50.866;7.944;2023-01-31T15:17:54;4.50;99.90
16247;DHT22;8231;50.866;7.944;2023-01-31T15:20:28;4.50;99.90
16247;DHT22;8231;50.866;7.944;2023-01-31T15:23:02;4.50;99.90
16247;DHT22;8231;50.866;7.944;2023-01-31T15:25:33;4.50;99.90
16247;DHT22;8231;50.866;7.944;2023-01-31T15:28:02;4.50;99.90
16247;DHT22;8231;50.866;7.944;2023-01-31T15:30:34;4.50;99.90
16247;DHT22;8231;50.866;7.944;2023-01-31T15:33:05;4.50;99.90
16247;DHT22;8231;50.866;7.944;2023-01-31T15:35:43;4.50;99.90
16247;DHT22;8231;50.866;7.944;2023-01-31T15:38:20;4.50;99.90
16247;DHT22;8231;50.866;7.944;2023-01-31T15:41:05;4.50;99.90
16247;DHT22;8231;50.866;7.944;2023-01-31T15:43:33;4.50;99.90
16247;DHT22;8231;50.866;7.944;2023-01-31T15:46:21;4.50;99.90
16247;DHT22;8231;50.866;7.944;2023-01-31T15:48:50;4.60;99.90
16247;DHT22;8231;50.866;7.944;2023-01-31T15:51:19;4.60;99.90
16247;DHT22;8231;50.866;7.944;2023-01-31T15:53:47;4.60;99.90
16247;DHT22;8231;50.866;7.944;2023-01-31T15:56:18;4.60;99.90
16247;DHT22;8231;50.866;7.944;2023-01-31T15:58:50;4.60;99.90
16247;DHT22;8231;50.866;7.944;2023-01-31T16:01:20;4.60;99.90
16247;DHT22;8231;50.866;7.944;2023-01-31T16:03:50;4.60;99.90
16247;DHT22;8231;50.866;7.944;2023-01-31T16:06:24;4.60;99.90
16247;DHT22;8231;50.866;7.944;2023-01-31T16:08:55;4.70;99.90
16247;DHT22;8231;50.866;7.944;2023-01-31T16:11:29;4.70;99.90
16247;DHT22;8231;50.866;7.944;2023-01-31T16:14:01;4.80;99.90
16247;DHT22;8231;50.866;7.944;2023-01-31T16:16:32;4.90;99.90
16247;DHT22;8231;50.866;7.944;2023-01-31T16:19:02;4.90;99.90
16247;DHT22;8231;50.866;7.944;2023-01-31T16:21:35;4.90;99.90
16247;DHT22;8231;50.866;7.944;2023-01-31T16:24:13;4.80;99.90
16247;DHT22;8231;50.866;7.944;2023-01-31T16:26:52;4.90;99.90
16247;DHT22;8231;50.866;7.944;2023-01-31T16:29:23;4.90;99.90
16247;DHT22;8231;50.866;7.944;2023-01-31T16:31:54;4.90;99.90
16247;DHT22;8231;50.866;7.944;2023-01-31T16:34:25;4.90;99.90
16247;DHT22;8231;50.866;7.944;2023-01-31T16:36:57;4.90;99.90
16247;DHT22;8231;50.866;7.944;2023-01-31T16:39:31;4.90;99.90
16247;DHT22;8231;50.866;7.944;2023-01-31T16:42:01;4.90;99.90
16247;DHT22;8231;50.866;7.944;2023-01-31T16:44:33;4.90;99.90
16247;DHT22;8231;50.866;7.944;2023-01-31T16:47:04;4.90;99.90
16247;DHT22;8231;50.866;7.944;2023-01-31T16:49:35;4.90;99.90
16247;DHT22;8231;50.866;7.944;2023-01-31T16:52:14;4.90;99.90
16247;DHT22;8231;50.866;7.944;2023-01-31T16:54:44;5.00;99.90
16247;DHT22;8231;50.866;7.944;2023-01-31T16:57:22;5.00;99.90
16247;DHT22;8231;50.866;7.944;2023-01-31T16:59:52;5.00;99.90
16247;DHT22;8231;50.866;7.944;2023-01-31T17:02:24;5.10;99.90